Time;durP1;ratioP1;P1;durP2;ratioP2;P2;SDS_P1;SDS_P2;PMS_P1;PMS_P2;Temp;Humidity;BMP_temperature;BMP_pressure;BME280_temperature;BME280_humidity;BME280_pressure;Samples;Min_cycle;Max_cycle;Signal;HPM_P1;HPM_P2
2022/09/26 00:00:34;;;;;;;5.77;4.40;;;;;;;;;;5066472;28;20254;-79
2022/09/26 00:03:00;;;;;;;5.60;5.00;;;;;;;;;;5069158;28;20230;-80
2022/09/26 00:05:25;;;;;;;6.93;4.90;;;;;;;;;;5070766;28;20201;-80
2022/09/26 00:07:50;;;;;;;5.40;4.90;;;;;;;;;;5070645;28;20192;-80
2022/09/26 00:10:15;;;;;;;6.53;5.93;;;;;;;;;;5070051;28;20263;-79
2022/09/26 00:12:41;;;;;;;8.73;5.83;;;;;;;;;;5065004;28;20288;-79
2022/09/26 00:15:06;;;;;;;7.30;5.57;;;;;;;;;;5056667;28;20288;-79
2022/09/26 00:17:31;;;;;;;6.17;5.13;;;;;;;;;;5064503;28;20284;-79
2022/09/26 00:19:56;;;;;;;6.90;5.73;;;;;;;;;;5066632;28;20170;-79
2022/09/26 00:22:22;;;;;;;6.10;5.50;;;;;;;;;;5071980;28;20292;-79
2022/09/26 00:24:47;;;;;;;6.53;5.50;;;;;;;;;;5069834;28;20217;-79
2022/09/26 00:27:12;;;;;;;5.53;5.03;;;;;;;;;;5059832;28;20215;-79
2022/09/26 00:29:37;;;;;;;5.67;5.07;;;;;;;;;;5065496;28;20196;-79
2022/09/26 00:32:03;;;;;;;5.40;4.90;;;;;;;;;;5063586;28;20267;-79
2022/09/26 00:34:28;;;;;;;5.53;4.80;;;;;;;;;;5062229;28;20437;-79
2022/09/26 00:36:53;;;;;;;5.97;5.43;;;;;;;;;;5068693;28;20181;-79
2022/09/26 00:39:18;;;;;;;5.50;4.90;;;;;;;;;;5064203;28;20182;-79
2022/09/26 00:41:44;;;;;;;7.77;5.07;;;;;;;;;;5066684;28;20176;-78
2022/09/26 00:44:48;;;;;;;5.80;5.27;;;;;;;;;;5069810;28;20241;-79
2022/09/26 00:47:20;;;;;;;5.77;4.80;;;;;;;;;;4993603;28;20190;-79
2022/09/26 00:49:46;;;;;;;5.57;5.07;;;;;;;;;;4990743;28;20238;-78
2022/09/26 00:52:14;;;;;;;5.27;4.77;;;;;;;;;;4998794;28;20201;-79
2022/09/26 00:54:44;;;;;;;6.13;5.07;;;;;;;;;;5007519;28;20218;-79
2022/09/26 00:57:10;;;;;;;5.23;4.83;;;;;;;;;;5012841;28;20183;-79
2022/09/26 00:59:37;;;;;;;6.03;4.90;;;;;;;;;;4999098;28;20220;-79
2022/09/26 01:02:03;;;;;;;5.90;5.37;;;;;;;;;;4991817;28;20255;-78
2022/09/26 01:04:30;;;;;;;4.97;4.57;;;;;;;;;;4996655;28;20257;-79
2022/09/26 01:06:56;;;;;;;6.20;5.13;;;;;;;;;;5007406;28;20182;-79
2022/09/26 01:09:21;;;;;;;6.97;5.17;;;;;;;;;;5006496;28;20190;-79
2022/09/26 01:11:47;;;;;;;5.97;4.33;;;;;;;;;;4992243;28;20198;-78
2022/09/26 01:14:12;;;;;;;5.73;4.63;;;;;;;;;;5013921;28;20257;-78
2022/09/26 01:16:38;;;;;;;6.57;4.83;;;;;;;;;;4993099;28;20221;-78
2022/09/26 01:19:08;;;;;;;6.10;4.13;;;;;;;;;;5063714;28;20195;-78
2022/09/26 01:21:52;;;;;;;8.33;4.03;;;;;;;;;;5061393;28;20182;-78
2022/09/26 01:24:20;;;;;;;8.40;5.03;;;;;;;;;;5068548;28;20245;-78
2022/09/26 01:27:04;;;;;;;4.27;3.83;;;;;;;;;;5061190;28;20289;-78
2022/09/26 01:29:44;;;;;;;4.97;3.97;;;;;;;;;;5065696;28;20210;-78
2022/09/26 01:32:48;;;;;;;5.93;3.90;;;;;;;;;;5067618;28;20196;-78
2022/09/26 01:35:20;;;;;;;4.27;3.70;;;;;;;;;;5057921;28;20216;-78
2022/09/26 01:37:50;;;;;;;4.17;3.77;;;;;;;;;;5065820;28;20224;-78
2022/09/26 01:40:15;;;;;;;4.87;3.70;;;;;;;;;;5065021;28;20187;-78
2022/09/26 01:42:59;;;;;;;4.93;3.57;;;;;;;;;;5065478;28;20186;-78
2022/09/26 01:45:32;;;;;;;7.77;3.90;;;;;;;;;;5066033;28;20177;-78
2022/09/26 01:48:08;;;;;;;5.20;3.60;;;;;;;;;;5066262;28;20212;-78
2022/09/26 01:50:44;;;;;;;6.10;3.43;;;;;;;;;;5067287;28;20174;-78
2022/09/26 01:53:15;;;;;;;4.07;3.67;;;;;;;;;;5069538;28;20322;-78
2022/09/26 01:55:43;;;;;;;3.43;3.13;;;;;;;;;;5065065;28;20305;-78
2022/09/26 01:58:29;;;;;;;5.30;4.23;;;;;;;;;;5067125;28;20198;-78
2022/09/26 02:00:57;;;;;;;5.33;3.43;;;;;;;;;;5060966;28;20181;-78
2022/09/26 02:03:26;;;;;;;6.43;3.90;;;;;;;;;;5062447;28;20187;-78
2022/09/26 02:05:53;;;;;;;4.23;3.27;;;;;;;;;;5059209;28;20207;-78
2022/09/26 02:08:23;;;;;;;3.70;3.40;;;;;;;;;;5067100;28;20181;-78
2022/09/26 02:10:49;;;;;;;4.03;3.30;;;;;;;;;;5067678;28;20177;-79
2022/09/26 02:13:23;;;;;;;3.60;3.20;;;;;;;;;;5060017;28;20264;-79
2022/09/26 02:15:51;;;;;;;6.27;4.03;;;;;;;;;;5067297;28;20234;-79
2022/09/26 02:18:22;;;;;;;4.20;3.80;;;;;;;;;;5067800;28;20185;-78
2022/09/26 02:20:50;;;;;;;6.73;3.60;;;;;;;;;;5067592;28;20231;-79
2022/09/26 02:23:15;;;;;;;6.43;3.93;;;;;;;;;;5082807;28;20182;-78
2022/09/26 02:25:41;;;;;;;5.83;3.60;;;;;;;;;;5069811;28;20203;-78
2022/09/26 02:28:06;;;;;;;4.47;3.40;;;;;;;;;;5064479;28;20268;-78
2022/09/26 02:30:32;;;;;;;3.93;3.53;;;;;;;;;;5069276;28;20203;-79
2022/09/26 02:32:57;;;;;;;6.13;3.70;;;;;;;;;;5065598;28;20184;-79
2022/09/26 02:38:06;;;;;;;9.73;3.47;;;;;;;;;;5066721;28;20261;-79
2022/09/26 02:40:55;;;;;;;4.40;4.00;;;;;;;;;;5075393;28;20203;-79
2022/09/26 02:43:23;;;;;;;4.00;3.60;;;;;;;;;;5059443;28;20240;-78
2022/09/26 02:45:54;;;;;;;4.07;3.53;;;;;;;;;;5062762;28;20427;-79
2022/09/26 02:48:19;;;;;;;5.10;3.87;;;;;;;;;;5060162;28;20189;-79
2022/09/26 02:51:07;;;;;;;6.57;3.80;;;;;;;;;;5067263;28;20190;-78
2022/09/26 02:53:32;;;;;;;4.70;3.90;;;;;;;;;;5077752;28;20189;-78
2022/09/26 02:56:22;;;;;;;3.53;3.23;;;;;;;;;;5063090;28;20179;-78
2022/09/26 02:58:47;;;;;;;4.33;3.93;;;;;;;;;;5052279;28;20192;-79
2022/09/26 03:01:20;;;;;;;4.73;4.10;;;;;;;;;;5063430;28;21142;-78
2022/09/26 03:04:01;;;;;;;4.30;3.70;;;;;;;;;;5055258;28;20181;-78
2022/09/26 03:06:29;;;;;;;5.50;4.30;;;;;;;;;;5067221;28;20199;-79
2022/09/26 03:08:55;;;;;;;5.63;4.03;;;;;;;;;;5066941;28;20237;-79
2022/09/26 03:11:21;;;;;;;5.83;4.00;;;;;;;;;;5058689;28;20182;-79
2022/09/26 03:13:49;;;;;;;5.33;4.00;;;;;;;;;;5068517;28;20180;-79
2022/09/26 03:16:15;;;;;;;8.63;4.00;;;;;;;;;;5064606;28;20182;-79
2022/09/26 03:19:03;;;;;;;4.73;4.20;;;;;;;;;;5065801;28;20183;-78
2022/09/26 03:21:29;;;;;;;5.47;3.83;;;;;;;;;;5059906;28;20288;-78
2022/09/26 03:23:56;;;;;;;4.40;4.00;;;;;;;;;;5076195;28;20229;-78
2022/09/26 03:26:23;;;;;;;8.13;3.73;;;;;;;;;;5065163;28;20219;-78
2022/09/26 03:28:49;;;;;;;4.93;3.70;;;;;;;;;;5058209;28;20251;-79
2022/09/26 03:31:14;;;;;;;8.17;4.63;;;;;;;;;;5059345;28;20260;-78
2022/09/26 03:33:39;;;;;;;5.80;3.47;;;;;;;;;;5071170;28;20175;-78
2022/09/26 03:36:05;;;;;;;4.77;3.83;;;;;;;;;;5072246;28;20175;-78
2022/09/26 03:38:31;;;;;;;4.30;3.70;;;;;;;;;;5063488;28;20188;-79
2022/09/26 03:40:57;;;;;;;4.30;3.30;;;;;;;;;;5071139;28;20290;-79
2022/09/26 03:43:23;;;;;;;3.17;2.87;;;;;;;;;;5071252;28;20179;-78
2022/09/26 03:45:48;;;;;;;7.43;3.30;;;;;;;;;;5065479;28;20223;-78
2022/09/26 03:48:15;;;;;;;3.00;2.80;;;;;;;;;;5064797;28;20183;-79
2022/09/26 03:50:40;;;;;;;3.50;2.47;;;;;;;;;;5067381;28;20177;-79
2022/09/26 03:53:06;;;;;;;3.73;3.23;;;;;;;;;;5067194;28;20269;-79
2022/09/26 03:55:31;;;;;;;4.50;3.00;;;;;;;;;;5064113;28;20193;-79
2022/09/26 03:57:59;;;;;;;4.00;3.10;;;;;;;;;;5071834;28;20268;-79
2022/09/26 04:00:24;;;;;;;5.10;3.43;;;;;;;;;;5070775;28;20172;-79
2022/09/26 04:02:49;;;;;;;3.60;3.10;;;;;;;;;;5060059;28;20173;-78
2022/09/26 04:05:14;;;;;;;3.33;3.03;;;;;;;;;;5066933;28;20193;-79
2022/09/26 04:07:40;;;;;;;4.87;3.27;;;;;;;;;;5076778;28;20173;-79
2022/09/26 04:10:05;;;;;;;3.77;3.37;;;;;;;;;;5067994;28;20192;-79
2022/09/26 04:12:31;;;;;;;2.50;2.30;;;;;;;;;;5062400;28;20195;-79
2022/09/26 04:14:56;;;;;;;3.33;2.70;;;;;;;;;;5069857;28;20215;-79
2022/09/26 04:17:21;;;;;;;6.00;2.97;;;;;;;;;;5070893;28;20221;-78
2022/09/26 04:19:47;;;;;;;5.40;2.93;;;;;;;;;;5067725;28;20176;-79
2022/09/26 04:22:12;;;;;;;5.83;3.47;;;;;;;;;;5068752;28;20178;-78
2022/09/26 04:24:38;;;;;;;5.10;3.13;;;;;;;;;;5070954;28;20234;-79
2022/09/26 04:27:04;;;;;;;3.90;2.77;;;;;;;;;;5068871;28;20193;-79
2022/09/26 04:29:29;;;;;;;3.00;2.80;;;;;;;;;;5069962;28;20190;-79
2022/09/26 04:31:55;;;;;;;4.60;2.97;;;;;;;;;;5069755;28;20180;-79
2022/09/26 04:34:23;;;;;;;6.30;3.20;;;;;;;;;;5069504;28;20199;-78
2022/09/26 04:36:50;;;;;;;4.47;3.00;;;;;;;;;;5064421;28;20176;-78
2022/09/26 04:39:15;;;;;;;3.37;3.00;;;;;;;;;;5065374;28;20180;-79
2022/09/26 04:41:40;;;;;;;3.57;3.13;;;;;;;;;;5067648;28;20274;-79
2022/09/26 04:44:06;;;;;;;5.13;3.40;;;;;;;;;;5063219;28;20208;-79
2022/09/26 04:46:31;;;;;;;8.13;5.93;;;;;;;;;;5070450;28;20216;-79
2022/09/26 04:48:57;;;;;;;9.37;6.13;;;;;;;;;;5069326;28;20172;-79
2022/09/26 04:51:23;;;;;;;9.20;7.03;;;;;;;;;;5064269;28;20247;-78
2022/09/26 04:53:49;;;;;;;7.40;6.20;;;;;;;;;;5066618;28;20176;-79
2022/09/26 04:56:15;;;;;;;7.57;5.43;;;;;;;;;;5067415;28;20224;-74
2022/09/26 04:58:42;;;;;;;5.70;5.03;;;;;;;;;;5066357;28;20179;-78
2022/09/26 05:01:08;;;;;;;19.53;13.43;;;;;;;;;;5066203;28;20176;-79
2022/09/26 05:03:35;;;;;;;3.57;3.10;;;;;;;;;;5066902;28;20171;-79
2022/09/26 05:06:00;;;;;;;4.07;3.57;;;;;;;;;;5068808;28;20231;-78
2022/09/26 05:08:26;;;;;;;4.93;4.17;;;;;;;;;;5070390;28;20230;-78
2022/09/26 05:10:53;;;;;;;7.17;2.90;;;;;;;;;;5070660;28;20211;-78
2022/09/26 05:13:21;;;;;;;4.07;2.47;;;;;;;;;;5070374;28;20192;-78
2022/09/26 05:15:49;;;;;;;7.20;3.43;;;;;;;;;;5066979;28;20201;-79
2022/09/26 05:18:14;;;;;;;5.67;3.57;;;;;;;;;;5059374;28;20177;-78
2022/09/26 05:20:42;;;;;;;3.43;2.60;;;;;;;;;;5065704;28;20174;-78
2022/09/26 05:23:08;;;;;;;4.00;2.93;;;;;;;;;;5067969;28;20175;-78
2022/09/26 05:28:21;;;;;;;4.77;3.10;;;;;;;;;;5081853;28;20186;-78
2022/09/26 05:30:47;;;;;;;4.87;3.37;;;;;;;;;;5073580;28;20181;-78
2022/09/26 05:33:12;;;;;;;3.23;2.70;;;;;;;;;;5069638;28;20187;-78
2022/09/26 05:35:38;;;;;;;5.10;4.13;;;;;;;;;;5066278;28;20224;-78
2022/09/26 05:38:04;;;;;;;3.70;2.93;;;;;;;;;;5064958;28;20254;-78
2022/09/26 05:43:13;;;;;;;6.10;3.67;;;;;;;;;;5067232;28;20264;-78
2022/09/26 05:45:39;;;;;;;5.20;3.40;;;;;;;;;;5068727;28;20210;-78
2022/09/26 05:48:04;;;;;;;3.77;3.40;;;;;;;;;;5057324;28;20368;-78
2022/09/26 05:50:30;;;;;;;3.23;2.90;;;;;;;;;;5054250;28;20216;-78
2022/09/26 05:52:59;;;;;;;5.57;3.63;;;;;;;;;;5061882;28;20243;-78
2022/09/26 05:55:25;;;;;;;3.67;3.37;;;;;;;;;;5062332;28;20241;-78
2022/09/26 05:57:50;;;;;;;4.27;3.40;;;;;;;;;;5063510;28;20207;-78
2022/09/26 06:00:16;;;;;;;5.73;3.40;;;;;;;;;;5062620;28;20180;-78
2022/09/26 06:02:41;;;;;;;3.57;3.23;;;;;;;;;;5070665;28;20395;-78
2022/09/26 06:05:06;;;;;;;5.50;3.20;;;;;;;;;;5066937;28;20207;-78
2022/09/26 06:07:31;;;;;;;4.37;3.47;;;;;;;;;;5070653;28;20184;-78
2022/09/26 06:09:57;;;;;;;5.47;3.27;;;;;;;;;;5069643;28;20198;-78
2022/09/26 06:12:24;;;;;;;4.73;3.83;;;;;;;;;;5062833;28;20183;-78
2022/09/26 06:14:52;;;;;;;5.07;3.63;;;;;;;;;;5062705;28;20195;-78
2022/09/26 06:17:17;;;;;;;4.67;3.23;;;;;;;;;;5071900;28;20204;-78
2022/09/26 06:19:43;;;;;;;7.30;3.40;;;;;;;;;;5059730;28;20253;-78
2022/09/26 06:22:08;;;;;;;5.17;3.20;;;;;;;;;;5066139;28;20183;-78
2022/09/26 06:24:33;;;;;;;4.83;3.17;;;;;;;;;;5069299;28;20228;-78
2022/09/26 06:26:59;;;;;;;5.03;3.37;;;;;;;;;;5067321;28;20189;-78
2022/09/26 06:29:24;;;;;;;6.17;4.10;;;;;;;;;;5061711;28;20199;-78
2022/09/26 06:31:49;;;;;;;5.53;3.73;;;;;;;;;;5068610;28;20190;-78
2022/09/26 06:34:14;;;;;;;4.20;3.80;;;;;;;;;;5063711;28;20216;-78
2022/09/26 06:36:40;;;;;;;4.93;3.47;;;;;;;;;;5065582;28;20192;-79
2022/09/26 06:39:05;;;;;;;4.47;3.93;;;;;;;;;;5063838;28;20210;-79
2022/09/26 06:41:30;;;;;;;3.70;3.40;;;;;;;;;;5067064;28;20179;-79
2022/09/26 06:43:55;;;;;;;6.97;4.33;;;;;;;;;;5056020;28;20174;-78
2022/09/26 06:46:21;;;;;;;4.33;3.87;;;;;;;;;;5062407;28;20192;-79
2022/09/26 06:48:46;;;;;;;3.53;3.23;;;;;;;;;;5066797;28;20190;-79
2022/09/26 06:51:14;;;;;;;3.73;3.20;;;;;;;;;;5067069;28;20621;-78
2022/09/26 06:53:40;;;;;;;4.23;3.40;;;;;;;;;;5071306;28;20167;-79
2022/09/26 06:56:05;;;;;;;3.80;3.10;;;;;;;;;;5073297;28;20210;-78
2022/09/26 06:58:31;;;;;;;3.50;3.20;;;;;;;;;;5074510;28;20246;-79
2022/09/26 07:00:59;;;;;;;4.20;3.57;;;;;;;;;;5072476;28;20173;-79
2022/09/26 07:03:25;;;;;;;4.97;3.63;;;;;;;;;;5067990;28;24190;-79
2022/09/26 07:05:53;;;;;;;4.10;3.27;;;;;;;;;;5070449;28;20199;-79
2022/09/26 07:08:19;;;;;;;4.47;3.20;;;;;;;;;;5084037;28;20185;-79
2022/09/26 07:10:45;;;;;;;5.40;3.00;;;;;;;;;;5072611;28;20180;-79
2022/09/26 07:13:11;;;;;;;5.53;3.67;;;;;;;;;;5071603;28;20214;-79
2022/09/26 07:15:36;;;;;;;3.53;3.23;;;;;;;;;;5065910;28;20363;-79
2022/09/26 07:18:02;;;;;;;4.93;3.93;;;;;;;;;;5067750;28;20167;-79
2022/09/26 07:20:32;;;;;;;5.90;3.60;;;;;;;;;;5067471;28;20199;-79
2022/09/26 07:23:05;;;;;;;4.67;3.80;;;;;;;;;;5068573;28;20181;-79
2022/09/26 07:25:30;;;;;;;4.33;3.10;;;;;;;;;;5084461;28;20239;-77
2022/09/26 07:27:56;;;;;;;5.77;3.60;;;;;;;;;;5066192;28;20178;-74
2022/09/26 07:30:22;;;;;;;4.00;3.60;;;;;;;;;;5071957;28;20187;-74
2022/09/26 07:32:47;;;;;;;4.27;3.60;;;;;;;;;;5076376;28;20173;-75
2022/09/26 07:35:16;;;;;;;4.03;3.63;;;;;;;;;;5071538;28;20222;-75
2022/09/26 07:37:42;;;;;;;3.80;3.50;;;;;;;;;;5075552;28;20185;-74
2022/09/26 07:40:07;;;;;;;8.03;4.10;;;;;;;;;;5076322;28;20168;-75
2022/09/26 07:42:41;;;;;;;4.47;3.47;;;;;;;;;;5075826;28;20200;-75
2022/09/26 07:45:07;;;;;;;4.43;4.03;;;;;;;;;;5070667;28;20179;-75
2022/09/26 07:50:16;;;;;;;8.37;4.77;;;;;;;;;;5065887;28;20212;-75
2022/09/26 07:52:42;;;;;;;14.23;8.50;;;;;;;;;;5084107;28;20173;-75
2022/09/26 07:55:09;;;;;;;12.13;5.00;;;;;;;;;;5081034;28;20201;-75
2022/09/26 07:57:34;;;;;;;4.80;4.07;;;;;;;;;;5074953;28;20174;-75
2022/09/26 08:00:01;;;;;;;5.73;4.13;;;;;;;;;;5069804;28;20181;-75
2022/09/26 08:02:33;;;;;;;6.10;4.87;;;;;;;;;;5074974;28;20184;-75
2022/09/26 08:04:59;;;;;;;6.07;4.70;;;;;;;;;;5076809;28;20196;-75
2022/09/26 08:07:24;;;;;;;4.20;3.80;;;;;;;;;;5073982;28;20186;-75
2022/09/26 08:09:51;;;;;;;5.83;3.07;;;;;;;;;;5074343;28;20181;-75
2022/09/26 08:12:17;;;;;;;6.13;3.00;;;;;;;;;;5089740;28;20261;-75
2022/09/26 08:14:45;;;;;;;4.53;2.83;;;;;;;;;;5066017;28;20292;-74
2022/09/26 08:17:11;;;;;;;2.80;2.60;;;;;;;;;;5068464;28;20172;-75
2022/09/26 08:19:36;;;;;;;3.53;3.23;;;;;;;;;;5076002;28;20177;-75
2022/09/26 08:22:01;;;;;;;5.63;3.60;;;;;;;;;;5073742;28;20172;-74
2022/09/26 08:24:27;;;;;;;4.60;3.27;;;;;;;;;;5065541;28;20229;-75
2022/09/26 08:26:55;;;;;;;3.80;3.13;;;;;;;;;;5064774;28;20275;-75
2022/09/26 08:29:22;;;;;;;3.70;3.30;;;;;;;;;;5072319;28;20210;-75
2022/09/26 08:31:47;;;;;;;3.70;3.40;;;;;;;;;;5067954;28;20162;-75
2022/09/26 08:34:13;;;;;;;4.60;3.23;;;;;;;;;;5068567;28;20212;-75
2022/09/26 08:36:38;;;;;;;3.80;3.37;;;;;;;;;;5072189;28;20172;-75
2022/09/26 08:39:03;;;;;;;5.13;3.80;;;;;;;;;;5080735;28;20189;-75
2022/09/26 08:41:42;;;;;;;4.03;3.47;;;;;;;;;;5064483;28;20166;-75
2022/09/26 08:44:11;;;;;;;3.60;2.90;;;;;;;;;;5067790;28;20226;-75
2022/09/26 08:49:22;;;;;;;4.57;3.20;;;;;;;;;;5083506;28;20204;-75
2022/09/26 08:51:49;;;;;;;4.57;3.00;;;;;;;;;;5072874;28;20179;-75
2022/09/26 08:54:21;;;;;;;6.17;4.80;;;;;;;;;;5071005;28;20202;-75
2022/09/26 08:56:52;;;;;;;6.43;4.63;;;;;;;;;;5072388;28;20170;-75
2022/09/26 08:59:31;;;;;;;3.37;2.63;;;;;;;;;;5071659;28;20181;-75
2022/09/26 09:01:59;;;;;;;4.53;3.90;;;;;;;;;;5070883;28;20311;-75
2022/09/26 09:04:40;;;;;;;3.67;2.93;;;;;;;;;;5071960;28;20177;-75
2022/09/26 09:07:19;;;;;;;6.43;3.80;;;;;;;;;;5070037;28;20227;-75
2022/09/26 09:09:45;;;;;;;3.27;2.63;;;;;;;;;;5069480;28;20189;-75
2022/09/26 09:12:18;;;;;;;3.40;2.40;;;;;;;;;;5072405;28;20178;-75
2022/09/26 09:15:05;;;;;;;2.40;2.20;;;;;;;;;;5073275;28;20204;-75
2022/09/26 09:17:36;;;;;;;8.87;7.43;;;;;;;;;;5080400;28;20169;-75
2022/09/26 09:20:11;;;;;;;4.33;3.93;;;;;;;;;;5071778;28;20212;-75
2022/09/26 09:22:46;;;;;;;5.00;3.90;;;;;;;;;;5063608;28;20188;-75
2022/09/26 09:25:21;;;;;;;3.53;3.00;;;;;;;;;;5070291;28;20228;-75
2022/09/26 09:27:46;;;;;;;3.77;3.03;;;;;;;;;;5070702;28;20188;-75
2022/09/26 09:30:16;;;;;;;8.90;5.60;;;;;;;;;;5070270;28;20174;-75
2022/09/26 09:32:53;;;;;;;2.10;1.90;;;;;;;;;;5073106;28;20173;-75
2022/09/26 09:35:22;;;;;;;3.90;1.87;;;;;;;;;;5069946;28;20205;-76
2022/09/26 09:37:49;;;;;;;2.70;2.00;;;;;;;;;;5066081;28;20189;-75
2022/09/26 09:40:23;;;;;;;1.53;1.40;;;;;;;;;;5070309;28;20183;-75
2022/09/26 09:42:50;;;;;;;3.40;1.43;;;;;;;;;;5066207;28;20229;-75
2022/09/26 09:45:23;;;;;;;2.83;1.77;;;;;;;;;;5068680;28;20204;-76
2022/09/26 09:47:49;;;;;;;2.57;1.77;;;;;;;;;;5069519;28;20193;-76
2022/09/26 09:50:22;;;;;;;6.63;2.10;;;;;;;;;;5066700;28;20215;-76
2022/09/26 09:53:07;;;;;;;1.80;1.60;;;;;;;;;;5078496;28;20173;-76
2022/09/26 09:55:48;;;;;;;2.83;1.80;;;;;;;;;;5018509;28;20221;-76
2022/09/26 09:58:22;;;;;;;2.20;1.80;;;;;;;;;;5069866;28;20171;-76
2022/09/26 10:01:08;;;;;;;3.77;3.30;;;;;;;;;;5081777;28;20228;-76
2022/09/26 10:03:33;;;;;;;2.23;2.00;;;;;;;;;;5052989;28;20203;-76
2022/09/26 10:05:59;;;;;;;2.03;1.60;;;;;;;;;;5073112;28;20193;-76
2022/09/26 10:08:35;;;;;;;2.77;1.63;;;;;;;;;;5076904;28;20167;-76
2022/09/26 10:11:13;;;;;;;2.33;1.50;;;;;;;;;;5065803;28;20178;-76
2022/09/26 10:13:41;;;;;;;2.40;1.67;;;;;;;;;;5061385;28;20190;-76
2022/09/26 10:16:07;;;;;;;1.57;1.47;;;;;;;;;;5066055;28;20196;-76
2022/09/26 10:18:32;;;;;;;3.03;1.50;;;;;;;;;;5082114;28;20260;-76
2022/09/26 10:21:05;;;;;;;1.60;1.50;;;;;;;;;;5063914;28;20200;-76
2022/09/26 10:23:47;;;;;;;1.93;1.50;;;;;;;;;;5075164;28;20173;-76
2022/09/26 10:26:21;;;;;;;1.20;1.10;;;;;;;;;;5073529;28;20186;-76
2022/09/26 10:28:46;;;;;;;2.03;1.70;;;;;;;;;;5074364;28;20190;-76
2022/09/26 10:31:21;;;;;;;2.17;1.30;;;;;;;;;;5070805;28;20175;-75
2022/09/26 10:33:57;;;;;;;1.50;1.40;;;;;;;;;;5071653;28;20177;-77
2022/09/26 10:36:36;;;;;;;3.57;1.90;;;;;;;;;;5070855;28;20184;-77
2022/09/26 10:42:12;;;;;;;2.47;1.57;;;;;;;;;;5063914;28;20233;-76
2022/09/26 10:44:37;;;;;;;2.20;1.80;;;;;;;;;;5079883;28;20185;-77
2022/09/26 10:47:09;;;;;;;1.43;1.33;;;;;;;;;;5066204;28;20301;-77
2022/09/26 10:49:38;;;;;;;2.87;1.30;;;;;;;;;;5065976;28;20179;-76
2022/09/26 10:52:10;;;;;;;1.43;1.33;;;;;;;;;;5077572;28;20240;-77
2022/09/26 10:54:40;;;;;;;2.03;1.60;;;;;;;;;;5063786;28;20278;-77
2022/09/26 10:57:08;;;;;;;1.80;1.63;;;;;;;;;;5080688;28;20181;-76
2022/09/26 10:59:38;;;;;;;1.67;1.57;;;;;;;;;;5067421;28;20187;-76
2022/09/26 11:02:04;;;;;;;1.77;1.60;;;;;;;;;;5060466;28;20187;-77
2022/09/26 11:07:25;;;;;;;2.50;1.40;;;;;;;;;;5071570;28;20267;-77
2022/09/26 11:09:58;;;;;;;1.57;1.47;;;;;;;;;;5071044;28;20171;-76
2022/09/26 11:12:28;;;;;;;3.43;1.57;;;;;;;;;;5071960;28;20468;-77
2022/09/26 11:14:56;;;;;;;3.13;1.63;;;;;;;;;;5072241;28;20297;-77
2022/09/26 11:17:22;;;;;;;2.13;1.40;;;;;;;;;;5070012;28;20176;-76
2022/09/26 11:19:52;;;;;;;1.60;1.50;;;;;;;;;;5074014;28;20171;-77
2022/09/26 11:22:29;;;;;;;1.50;1.40;;;;;;;;;;5068886;28;20172;-77
2022/09/26 11:25:10;;;;;;;2.53;1.70;;;;;;;;;;5067077;28;20240;-77
2022/09/26 11:27:44;;;;;;;2.10;1.43;;;;;;;;;;5059733;28;20188;-77
2022/09/26 11:30:19;;;;;;;2.03;1.70;;;;;;;;;;5073363;28;20187;-77
2022/09/26 11:32:53;;;;;;;3.33;1.37;;;;;;;;;;5080208;28;20198;-77
2022/09/26 11:35:32;;;;;;;1.60;1.50;;;;;;;;;;5064666;28;20216;-77
2022/09/26 11:38:25;;;;;;;1.63;1.53;;;;;;;;;;5076343;28;20170;-77
2022/09/26 11:41:01;;;;;;;2.50;1.20;;;;;;;;;;5081958;28;20175;-77
2022/09/26 11:43:26;;;;;;;1.67;1.50;;;;;;;;;;5073033;28;20168;-77
2022/09/26 11:45:54;;;;;;;3.33;1.30;;;;;;;;;;5071002;28;20184;-77
2022/09/26 11:48:39;;;;;;;1.50;1.40;;;;;;;;;;5072846;28;20235;-77
2022/09/26 11:51:22;;;;;;;2.53;1.20;;;;;;;;;;5077936;28;20211;-77
2022/09/26 11:54:10;;;;;;;2.30;1.50;;;;;;;;;;5062287;28;20178;-77
2022/09/26 11:56:47;;;;;;;2.53;1.20;;;;;;;;;;5042268;28;20229;-78
2022/09/26 11:59:12;;;;;;;2.93;1.50;;;;;;;;;;5072607;28;20187;-77
2022/09/26 12:01:37;;;;;;;1.57;1.33;;;;;;;;;;5072124;28;20180;-77
2022/09/26 12:04:14;;;;;;;2.27;1.30;;;;;;;;;;5083528;28;20177;-77
2022/09/26 12:06:47;;;;;;;1.23;1.13;;;;;;;;;;5063277;28;20200;-77
2022/09/26 12:09:31;;;;;;;3.37;1.57;;;;;;;;;;5076193;28;20204;-77
2022/09/26 12:12:02;;;;;;;1.23;1.13;;;;;;;;;;5078045;28;20195;-77
2022/09/26 12:14:40;;;;;;;1.43;1.33;;;;;;;;;;5071751;28;20193;-77
2022/09/26 12:17:14;;;;;;;1.43;1.33;;;;;;;;;;5072383;28;20195;-77
2022/09/26 12:19:58;;;;;;;1.47;1.37;;;;;;;;;;5069844;28;20177;-77
2022/09/26 12:22:37;;;;;;;1.97;1.70;;;;;;;;;;5072460;28;20254;-77
2022/09/26 12:25:09;;;;;;;2.13;1.60;;;;;;;;;;5071025;28;20294;-77
2022/09/26 12:27:37;;;;;;;1.90;1.80;;;;;;;;;;5076514;28;20174;-77
2022/09/26 12:30:05;;;;;;;2.00;1.47;;;;;;;;;;5070770;28;20185;-78
2022/09/26 12:32:42;;;;;;;1.37;1.27;;;;;;;;;;5070760;28;20174;-77
2022/09/26 12:35:27;;;;;;;1.40;1.30;;;;;;;;;;5061373;28;20202;-77
2022/09/26 12:38:12;;;;;;;3.20;1.77;;;;;;;;;;5072205;28;20222;-77
2022/09/26 12:40:52;;;;;;;3.13;1.80;;;;;;;;;;5076370;28;20253;-77
2022/09/26 12:43:18;;;;;;;1.80;1.70;;;;;;;;;;5063114;28;20180;-77
2022/09/26 12:45:46;;;;;;;2.67;2.47;;;;;;;;;;5070953;28;20180;-77
2022/09/26 12:48:18;;;;;;;4.40;3.23;;;;;;;;;;5070751;28;20180;-77
2022/09/26 12:51:19;;;;;;;2.33;1.83;;;;;;;;;;5072170;28;20177;-77
2022/09/26 12:53:44;;;;;;;1.67;1.50;;;;;;;;;;5050999;28;20245;-77
2022/09/26 12:56:17;;;;;;;1.30;1.20;;;;;;;;;;5070444;28;20206;-77
2022/09/26 12:58:49;;;;;;;2.33;1.53;;;;;;;;;;5067736;28;20272;-77
2022/09/26 13:01:34;;;;;;;2.10;1.57;;;;;;;;;;5056888;28;20188;-74
2022/09/26 13:04:15;;;;;;;1.87;1.60;;;;;;;;;;5058253;28;20176;-81
2022/09/26 13:06:57;;;;;;;1.50;1.40;;;;;;;;;;5060908;28;20206;-81
2022/09/26 13:09:51;;;;;;;1.70;1.60;;;;;;;;;;5069108;28;20180;-81
2022/09/26 13:12:39;;;;;;;1.60;1.50;;;;;;;;;;5051969;28;20214;-81
2022/09/26 13:15:19;;;;;;;1.80;1.70;;;;;;;;;;5062977;28;20206;-81
2022/09/26 13:17:47;;;;;;;1.50;1.40;;;;;;;;;;5062751;28;20225;-81
2022/09/26 13:20:18;;;;;;;1.97;1.20;;;;;;;;;;5067767;28;20264;-81
2022/09/26 13:22:49;;;;;;;2.00;1.50;;;;;;;;;;5069171;28;20177;-81
2022/09/26 13:25:24;;;;;;;1.93;1.40;;;;;;;;;;5085399;28;20231;-80
2022/09/26 13:28:08;;;;;;;1.43;1.20;;;;;;;;;;5075824;28;20172;-81
2022/09/26 13:30:53;;;;;;;2.53;1.33;;;;;;;;;;5081029;28;20181;-81
2022/09/26 13:33:21;;;;;;;2.07;1.77;;;;;;;;;;5067074;28;20223;-81
2022/09/26 13:35:50;;;;;;;1.40;1.30;;;;;;;;;;5071066;28;20197;-81
2022/09/26 13:38:33;;;;;;;1.40;1.30;;;;;;;;;;5059876;28;20239;-81
2022/09/26 13:41:14;;;;;;;2.40;1.87;;;;;;;;;;5078859;28;20172;-80
2022/09/26 13:43:52;;;;;;;1.60;1.27;;;;;;;;;;5062944;28;20164;-80
2022/09/26 13:46:38;;;;;;;1.50;1.40;;;;;;;;;;5065386;28;20188;-80
2022/09/26 13:49:03;;;;;;;1.80;1.40;;;;;;;;;;5068153;28;20184;-80
2022/09/26 13:51:36;;;;;;;1.83;1.30;;;;;;;;;;5070229;28;20188;-81
2022/09/26 13:54:15;;;;;;;2.30;1.20;;;;;;;;;;5066416;28;20186;-81
2022/09/26 13:56:40;;;;;;;1.40;1.30;;;;;;;;;;5064816;28;20173;-81
2022/09/26 13:59:13;;;;;;;2.03;1.63;;;;;;;;;;5064915;28;20192;-81
2022/09/26 14:01:58;;;;;;;1.47;1.30;;;;;;;;;;5065342;28;20177;-81
2022/09/26 14:04:36;;;;;;;1.47;1.30;;;;;;;;;;5083236;28;20188;-81
2022/09/26 14:09:22;;;;;;;1.63;1.50;;;;;;;;;;5061844;28;20187;-75
2022/09/26 14:10:06;;;;;;;1.40;1.30;;;;;;;;;;5069780;28;20190;-80
2022/09/26 14:12:51;;;;;;;1.43;1.20;;;;;;;;;;5064856;28;20183;-81
2022/09/26 14:15:22;;;;;;;1.83;1.37;;;;;;;;;;5061318;28;20203;-81
2022/09/26 14:17:51;;;;;;;1.30;1.20;;;;;;;;;;5058459;28;20174;-81
2022/09/26 14:20:26;;;;;;;1.43;1.33;;;;;;;;;;5068206;28;20191;-81
2022/09/26 14:22:53;;;;;;;1.50;1.20;;;;;;;;;;5068150;28;20184;-81
2022/09/26 14:25:37;;;;;;;1.33;1.10;;;;;;;;;;5063427;28;20268;-81
2022/09/26 14:28:18;;;;;;;3.23;1.57;;;;;;;;;;5068340;28;20467;-81
2022/09/26 14:31:03;;;;;;;3.37;1.50;;;;;;;;;;5067636;28;20178;-81
2022/09/26 14:33:28;;;;;;;1.73;1.43;;;;;;;;;;5067924;28;20239;-81
2022/09/26 14:36:14;;;;;;;1.37;1.27;;;;;;;;;;5064967;28;20290;-81
2022/09/26 14:38:44;;;;;;;3.13;1.50;;;;;;;;;;5062824;28;20251;-81
2022/09/26 14:41:15;;;;;;;3.00;1.17;;;;;;;;;;5066644;28;20188;-80
2022/09/26 14:43:40;;;;;;;3.43;1.67;;;;;;;;;;5069778;28;20267;-80
2022/09/26 14:46:16;;;;;;;1.37;1.27;;;;;;;;;;5058893;28;20265;-80
2022/09/26 14:48:42;;;;;;;1.30;1.20;;;;;;;;;;5066146;28;20201;-80
2022/09/26 14:51:09;;;;;;;1.30;1.10;;;;;;;;;;5066018;28;20234;-80
2022/09/26 14:53:38;;;;;;;9.40;6.13;;;;;;;;;;5069163;28;20274;-81
2022/09/26 14:56:06;;;;;;;2.20;1.30;;;;;;;;;;5069547;28;20205;-81
2022/09/26 14:58:31;;;;;;;2.23;1.40;;;;;;;;;;5077337;28;20200;-80
2022/09/26 15:01:01;;;;;;;2.77;2.13;;;;;;;;;;5061342;28;20215;-81
2022/09/26 15:03:27;;;;;;;2.33;1.30;;;;;;;;;;5058373;28;20183;-80
2022/09/26 15:05:52;;;;;;;3.80;1.83;;;;;;;;;;5065265;28;20197;-80
2022/09/26 15:08:21;;;;;;;3.93;3.23;;;;;;;;;;5062870;28;20180;-81
2022/09/26 15:10:46;;;;;;;2.77;1.90;;;;;;;;;;5069056;28;20182;-80
2022/09/26 15:13:27;;;;;;;1.73;1.63;;;;;;;;;;5064544;28;20269;-80
2022/09/26 15:16:02;;;;;;;1.63;1.50;;;;;;;;;;5068392;28;20275;-80
2022/09/26 15:18:36;;;;;;;2.03;1.50;;;;;;;;;;5065136;28;20175;-80
2022/09/26 15:21:04;;;;;;;1.43;1.33;;;;;;;;;;5064232;28;20182;-80